createdAt,value
2023-04-22T00:00:04.422Z,103.45
2023-04-22T00:02:32.516Z,150.35
2023-04-22T00:04:59.431Z,153.23
2023-04-22T00:07:26.282Z,143.70
2023-04-22T00:09:52.878Z,141.13
2023-04-22T00:12:19.506Z,132.25
2023-04-22T00:14:46.002Z,150.23
2023-04-22T00:17:12.639Z,111.88
2023-04-22T00:19:39.462Z,131.40
2023-04-22T00:22:06.192Z,123.15
2023-04-22T00:24:32.871Z,96.93
2023-04-22T00:26:59.792Z,97.20
2023-04-22T00:29:26.413Z,77.85
2023-04-22T00:31:53.076Z,55.53
2023-04-22T00:34:19.729Z,56.72
2023-04-22T00:36:46.550Z,55.05
2023-04-22T00:39:14.007Z,57.72
2023-04-22T00:41:40.624Z,40.78
2023-04-22T00:44:11.101Z,46.50
2023-04-22T00:46:39.606Z,49.28
2023-04-22T00:49:07.798Z,49.47
2023-04-22T00:51:34.909Z,77.53
2023-04-22T00:54:02.063Z,91.57
2023-04-22T00:56:31.656Z,126.38
2023-04-22T00:58:58.965Z,111.57
2023-04-22T01:01:26.646Z,81.28
2023-04-22T01:03:53.955Z,65.13
2023-04-22T01:06:22.110Z,49.42
2023-04-22T01:08:48.973Z,51.45
2023-04-22T01:11:16.172Z,42.55
2023-04-22T01:13:42.711Z,40.72
2023-04-22T01:16:10.220Z,56.75
2023-04-22T01:18:37.116Z,54.22
2023-04-22T01:21:03.876Z,40.92
2023-04-22T01:23:30.760Z,41.47
2023-04-22T01:25:57.510Z,42.45
2023-04-22T01:28:24.539Z,43.03
2023-04-22T01:30:52.403Z,48.53
2023-04-22T01:33:19.274Z,37.30
2023-04-22T01:35:46.185Z,24.48
2023-04-22T01:38:13.392Z,29.88
2023-04-22T01:40:40.977Z,27.35
2023-04-22T01:43:07.890Z,21.48
2023-04-22T01:45:37.584Z,30.55
2023-04-22T01:48:04.946Z,26.90
2023-04-22T01:50:31.555Z,34.92
2023-04-22T01:52:58.877Z,32.70
2023-04-22T01:55:25.674Z,24.35
2023-04-22T01:57:52.445Z,45.55
2023-04-22T02:00:19.442Z,63.22
2023-04-22T02:02:47.925Z,100.57
2023-04-22T02:05:14.843Z,116.43
2023-04-22T02:07:41.722Z,73.68
2023-04-22T02:10:09.688Z,73.60
2023-04-22T02:12:36.213Z,68.13
2023-04-22T02:15:02.937Z,54.15
2023-04-22T02:17:30.109Z,51.90
2023-04-22T02:19:56.892Z,49.90
2023-04-22T02:22:24.034Z,70.75
2023-04-22T02:24:51.133Z,64.07
2023-04-22T02:27:17.633Z,67.53
2023-04-22T02:29:45.963Z,53.40
2023-04-22T02:32:12.956Z,57.42
2023-04-22T02:34:39.587Z,57.53
2023-04-22T02:37:06.345Z,45.90
2023-04-22T02:39:33.489Z,54.58
2023-04-22T02:42:01.349Z,40.85
2023-04-22T02:44:28.305Z,45.17
2023-04-22T02:46:54.967Z,40.78
2023-04-22T02:49:21.708Z,47.72
2023-04-22T02:51:48.462Z,51.47
2023-04-22T02:54:15.479Z,49.55
2023-04-22T02:56:41.976Z,44.58
2023-04-22T02:59:08.713Z,41.83
2023-04-22T03:01:35.433Z,43.10
2023-04-22T03:04:04.420Z,25.67
2023-04-22T03:06:31.087Z,24.23
2023-04-22T03:08:58.260Z,32.42
2023-04-22T03:11:25.627Z,27.75
2023-04-22T03:13:52.427Z,32.75
2023-04-22T03:16:19.335Z,28.95
2023-04-22T03:18:46.446Z,20.52
2023-04-22T03:21:13.044Z,21.27
2023-04-22T03:23:40.924Z,24.38
2023-04-22T03:26:07.717Z,24.63
2023-04-22T03:28:34.401Z,38.28
2023-04-22T03:31:01.756Z,34.20
2023-04-22T03:33:29.530Z,30.85
2023-04-22T03:36:02.756Z,39.20
2023-04-22T03:38:29.432Z,45.40
2023-04-22T03:40:55.915Z,39.05
2023-04-22T03:43:37.078Z,33.67
2023-04-22T03:46:08.075Z,44.80
2023-04-22T03:48:38.167Z,42.90
2023-04-22T03:51:10.202Z,51.97
2023-04-22T03:53:38.534Z,50.78
2023-04-22T03:56:06.743Z,38.63
2023-04-22T03:58:37.252Z,38.10
2023-04-22T04:01:07.866Z,35.40
2023-04-22T04:03:34.869Z,56.13
2023-04-22T04:06:02.330Z,35.17
2023-04-22T04:08:29.055Z,38.40
2023-04-22T04:10:55.970Z,38.75
2023-04-22T04:13:24.074Z,30.65
2023-04-22T04:16:08.192Z,38.42
2023-04-22T04:18:38.704Z,25.60
2023-04-22T04:21:05.633Z,38.58
2023-04-22T04:23:36.015Z,33.45
2023-04-22T04:26:05.447Z,28.75
2023-04-22T04:28:35.127Z,41.00
2023-04-22T04:31:05.315Z,44.45
2023-04-22T04:33:32.622Z,44.10
2023-04-22T04:35:59.788Z,39.65
2023-04-22T04:38:30.799Z,37.33
2023-04-22T04:40:58.597Z,59.65
2023-04-22T04:43:27.044Z,39.70
2023-04-22T04:46:02.038Z,44.97
2023-04-22T04:48:35.956Z,51.33
2023-04-22T04:51:07.928Z,51.15
2023-04-22T04:53:40.563Z,54.60
2023-04-22T04:56:07.230Z,45.38
2023-04-22T04:58:35.102Z,51.55
2023-04-22T05:01:24.025Z,50.65
2023-04-22T05:03:51.886Z,40.50
2023-04-22T05:06:20.100Z,51.05
2023-04-22T05:08:51.457Z,46.10
2023-04-22T05:11:19.133Z,53.10
2023-04-22T05:13:48.529Z,46.13
2023-04-22T05:16:22.245Z,50.85
2023-04-22T05:18:48.890Z,43.30
2023-04-22T05:21:16.795Z,52.17
2023-04-22T05:23:45.475Z,42.00
2023-04-22T05:26:12.894Z,52.00
2023-04-22T05:28:41.923Z,46.85
2023-04-22T05:31:08.722Z,41.90
2023-04-22T05:33:36.711Z,45.80
2023-04-22T05:36:03.399Z,40.40
2023-04-22T05:38:30.374Z,44.47
2023-04-22T05:40:56.922Z,50.35
2023-04-22T05:43:24.829Z,52.60
2023-04-22T05:45:58.223Z,44.38
2023-04-22T05:48:24.957Z,44.65
2023-04-22T05:50:57.904Z,43.10
2023-04-22T05:53:27.538Z,44.10
2023-04-22T05:55:55.651Z,40.30
2023-04-22T05:58:23.781Z,44.53
2023-04-22T06:00:53.600Z,44.92
2023-04-22T06:03:39.086Z,42.83
2023-04-22T06:06:06.655Z,41.22
2023-04-22T06:08:33.302Z,41.45
2023-04-22T06:11:00.207Z,42.90
2023-04-22T06:13:30.484Z,50.80
2023-04-22T06:15:57.191Z,43.20
2023-04-22T06:18:23.887Z,45.92
2023-04-22T06:20:51.952Z,46.55
2023-04-22T06:23:18.485Z,41.92
2023-04-22T06:25:47.038Z,40.28
2023-04-22T06:28:14.338Z,41.63
2023-04-22T06:30:41.134Z,41.58
2023-04-22T06:33:08.166Z,46.33
2023-04-22T06:35:35.353Z,45.30
2023-04-22T06:38:01.908Z,41.30
2023-04-22T06:40:36.783Z,46.00
2023-04-22T06:43:13.661Z,32.72
2023-04-22T06:46:10.568Z,35.65
2023-04-22T06:48:55.869Z,39.53
2023-04-22T06:51:41.058Z,43.22
2023-04-22T06:54:08.221Z,37.70
2023-04-22T06:56:36.012Z,37.22
2023-04-22T06:59:02.671Z,38.20
2023-04-22T07:01:30.258Z,38.13
2023-04-22T07:03:57.436Z,45.58
2023-04-22T07:06:24.607Z,43.80
2023-04-22T07:08:51.600Z,42.70
2023-04-22T07:11:18.128Z,42.42
2023-04-22T07:14:01.708Z,34.42
2023-04-22T07:16:28.681Z,28.38
2023-04-22T07:18:55.481Z,30.00
2023-04-22T07:21:23.665Z,37.17
2023-04-22T07:23:50.473Z,26.33
2023-04-22T07:26:17.059Z,26.08
2023-04-22T07:28:43.636Z,24.42
2023-04-22T07:31:10.394Z,23.73
2023-04-22T07:33:36.881Z,26.65
2023-04-22T07:36:03.777Z,23.08
2023-04-22T07:38:30.412Z,21.50
2023-04-22T07:40:57.679Z,26.05
2023-04-22T07:43:24.215Z,20.73
2023-04-22T07:45:51.241Z,22.27
2023-04-22T07:48:18.230Z,17.77
2023-04-22T07:50:45.008Z,25.40
2023-04-22T07:53:11.545Z,19.20
2023-04-22T07:55:38.131Z,18.38
2023-04-22T07:58:06.598Z,23.85
2023-04-22T08:00:34.846Z,15.70
2023-04-22T08:03:02.636Z,17.15
2023-04-22T08:05:29.337Z,15.68
2023-04-22T08:07:55.861Z,20.63
2023-04-22T08:10:22.548Z,13.75
2023-04-22T08:12:49.207Z,14.07
2023-04-22T08:15:15.745Z,16.52
2023-04-22T08:17:42.400Z,12.95
2023-04-22T08:20:09.781Z,11.50
2023-04-22T08:22:36.642Z,15.07
2023-04-22T08:25:03.313Z,15.70
2023-04-22T08:27:30.826Z,13.32
2023-04-22T08:29:57.401Z,10.15
2023-04-22T08:32:26.297Z,8.13
2023-04-22T08:34:54.238Z,11.95
2023-04-22T08:37:25.561Z,12.00
2023-04-22T08:39:52.194Z,8.75
2023-04-22T08:42:19.948Z,16.23
2023-04-22T08:44:46.911Z,11.00
2023-04-22T08:47:15.322Z,9.98
2023-04-22T08:49:43.750Z,9.63
2023-04-22T08:52:12.789Z,13.82
2023-04-22T08:54:39.390Z,13.63
2023-04-22T08:57:07.381Z,10.98
2023-04-22T08:59:35.413Z,10.27
2023-04-22T09:02:05.691Z,14.85
2023-04-22T09:04:32.915Z,15.82
2023-04-22T09:07:01.598Z,12.13
2023-04-22T09:09:30.742Z,14.38
2023-04-22T09:11:57.954Z,16.38
2023-04-22T09:14:25.552Z,8.93
2023-04-22T09:16:52.192Z,13.57
2023-04-22T09:19:25.649Z,13.15
2023-04-22T09:21:54.279Z,9.70
2023-04-22T09:24:21.638Z,11.25
2023-04-22T09:26:49.047Z,11.27
2023-04-22T09:29:16.471Z,10.27
2023-04-22T09:31:47.803Z,11.35
2023-04-22T09:34:17.414Z,9.57
2023-04-22T09:36:46.599Z,8.63
2023-04-22T09:39:13.273Z,10.93
2023-04-22T09:41:41.066Z,12.88
2023-04-22T09:44:15.878Z,9.65
2023-04-22T09:46:44.031Z,10.50
2023-04-22T09:49:10.835Z,8.75
2023-04-22T09:51:41.082Z,13.07
2023-04-22T09:54:10.289Z,15.85
2023-04-22T09:56:48.787Z,13.18
2023-04-22T09:59:21.166Z,12.30
2023-04-22T10:01:48.489Z,11.23
2023-04-22T10:04:16.050Z,11.80
2023-04-22T10:06:43.243Z,8.73
2023-04-22T10:09:09.986Z,9.45
2023-04-22T10:11:37.544Z,10.77
2023-04-22T10:14:05.423Z,12.85
2023-04-22T10:16:34.838Z,10.00
2023-04-22T10:19:04.665Z,14.18
2023-04-22T10:21:32.411Z,14.48
2023-04-22T10:24:00.765Z,14.43
2023-04-22T10:26:56.249Z,13.80
2023-04-22T10:29:25.335Z,21.80
2023-04-22T10:32:07.944Z,15.38
2023-04-22T10:34:38.862Z,12.93
2023-04-22T10:37:08.335Z,9.77
2023-04-22T10:39:35.295Z,12.23
2023-04-22T10:42:07.508Z,13.23
2023-04-22T10:44:53.684Z,15.38
2023-04-22T10:47:27.190Z,15.15
2023-04-22T10:50:24.139Z,13.93
2023-04-22T10:52:55.423Z,11.77
2023-04-22T10:55:23.717Z,9.50
2023-04-22T10:57:51.901Z,11.60
2023-04-22T11:00:24.493Z,11.50
2023-04-22T11:03:16.406Z,13.82
2023-04-22T11:05:44.111Z,9.52
2023-04-22T11:08:21.561Z,16.98
2023-04-22T11:10:50.395Z,13.88
2023-04-22T11:13:19.408Z,12.52
2023-04-22T11:15:48.865Z,15.65
2023-04-22T11:18:19.837Z,11.65
2023-04-22T11:20:49.162Z,13.37
2023-04-22T11:23:27.968Z,10.85
2023-04-22T11:25:59.560Z,13.48
2023-04-22T11:28:26.848Z,10.05
2023-04-22T11:31:01.069Z,13.43
2023-04-22T11:33:27.737Z,18.27
2023-04-22T11:35:55.364Z,8.25
2023-04-22T11:38:21.960Z,8.43
2023-04-22T11:40:48.998Z,14.15
2023-04-22T11:43:16.188Z,13.00
2023-04-22T11:45:42.879Z,11.35
2023-04-22T11:48:11.434Z,14.52
2023-04-22T11:50:40.644Z,9.48
2023-04-22T11:53:18.991Z,14.10
2023-04-22T11:55:47.883Z,11.30
2023-04-22T11:58:16.138Z,7.85
2023-04-22T12:00:51.289Z,9.32
2023-04-22T12:03:26.254Z,8.75
2023-04-22T12:06:01.083Z,12.75
2023-04-22T12:08:36.758Z,11.40
2023-04-22T12:11:06.182Z,7.88
2023-04-22T12:13:33.160Z,8.57
2023-04-22T12:16:04.669Z,11.10
2023-04-22T12:18:32.790Z,8.98
2023-04-22T12:21:12.688Z,10.05
2023-04-22T12:23:43.479Z,10.93
2023-04-22T12:26:10.665Z,11.20
2023-04-22T12:28:38.895Z,12.32
2023-04-22T12:31:07.580Z,8.13
2023-04-22T12:33:34.806Z,7.88
2023-04-22T12:36:01.589Z,9.07
2023-04-22T12:38:28.621Z,14.23
2023-04-22T12:40:55.480Z,8.73
2023-04-22T12:43:22.168Z,9.63
2023-04-22T12:45:48.926Z,8.75
2023-04-22T12:48:16.146Z,11.27
2023-04-22T12:50:42.892Z,12.10
2023-04-22T12:53:09.881Z,11.57
2023-04-22T12:55:36.867Z,12.07
2023-04-22T12:58:04.312Z,18.20
2023-04-22T13:00:31.111Z,14.35
2023-04-22T13:02:57.948Z,12.68
2023-04-22T13:05:25.395Z,12.80
2023-04-22T13:08:05.830Z,10.05
2023-04-22T13:10:34.179Z,10.18
2023-04-22T13:13:16.978Z,10.90
2023-04-22T13:15:45.384Z,14.68
2023-04-22T13:18:12.325Z,9.57
2023-04-22T13:20:39.815Z,11.57
2023-04-22T13:23:06.651Z,20.75
2023-04-22T13:25:33.353Z,15.07
2023-04-22T13:28:03.087Z,10.77
2023-04-22T13:30:29.821Z,10.70
2023-04-22T13:32:56.478Z,14.40
2023-04-22T13:35:23.516Z,12.15
2023-04-22T13:37:50.088Z,9.98
2023-04-22T13:40:16.737Z,10.25
2023-04-22T13:42:46.681Z,13.20
2023-04-22T13:45:13.348Z,12.23
2023-04-22T13:47:42.851Z,8.27
2023-04-22T13:50:09.996Z,12.45
2023-04-22T13:52:36.898Z,12.07
2023-04-22T13:55:04.053Z,10.45
2023-04-22T13:57:30.581Z,12.85
2023-04-22T13:59:57.174Z,7.45
2023-04-22T14:02:24.317Z,9.13
2023-04-22T14:04:51.114Z,8.57
2023-04-22T14:07:17.699Z,9.85
2023-04-22T14:09:44.428Z,9.35
2023-04-22T14:12:11.652Z,8.32
2023-04-22T14:14:38.345Z,10.52
2023-04-22T14:17:08.326Z,9.95
2023-04-22T14:19:37.346Z,13.88
2023-04-22T14:22:04.029Z,14.25
2023-04-22T14:24:30.966Z,11.95
2023-04-22T14:26:59.858Z,19.08
2023-04-22T14:31:43.744Z,10.23
2023-04-22T14:34:10.697Z,10.85
2023-04-22T14:38:50.591Z,10.63
2023-04-22T14:41:17.291Z,8.35
2023-04-22T14:43:43.828Z,7.55
2023-04-22T14:46:10.572Z,11.10
2023-04-22T14:48:39.219Z,12.18
2023-04-22T14:51:05.976Z,8.68
2023-04-22T14:53:35.679Z,13.18
2023-04-22T14:56:02.264Z,7.30
2023-04-22T14:58:31.616Z,8.25
2023-04-22T15:00:59.794Z,9.65
2023-04-22T15:03:26.737Z,9.32
2023-04-22T15:05:54.853Z,14.73
2023-04-22T15:08:21.673Z,8.05
2023-04-22T15:10:48.336Z,10.43
2023-04-22T15:13:14.935Z,10.20
2023-04-22T15:15:41.640Z,10.68
2023-04-22T15:18:08.900Z,7.65
2023-04-22T15:20:35.887Z,12.98
2023-04-22T15:23:02.888Z,9.52
2023-04-22T15:25:29.533Z,9.20
2023-04-22T15:27:56.891Z,8.23
2023-04-22T15:30:24.442Z,7.40
2023-04-22T15:32:51.033Z,9.73
2023-04-22T15:35:17.886Z,7.22
2023-04-22T15:37:45.739Z,17.80
2023-04-22T15:40:12.620Z,11.07
2023-04-22T15:42:39.189Z,9.38
2023-04-22T15:45:06.596Z,10.52
2023-04-22T15:47:33.759Z,6.93
2023-04-22T15:50:06.654Z,8.98
2023-04-22T15:52:35.906Z,10.40
2023-04-22T15:55:02.575Z,7.97
2023-04-22T15:57:34.136Z,9.27
2023-04-22T16:00:12.936Z,7.30
2023-04-22T16:05:12.203Z,10.30
2023-04-22T16:07:38.924Z,12.65
2023-04-22T16:10:09.344Z,13.73
2023-04-22T16:12:36.200Z,8.82
2023-04-22T16:15:02.824Z,9.25
2023-04-22T16:17:29.977Z,7.97
2023-04-22T16:19:56.602Z,11.48
2023-04-22T16:22:24.046Z,6.35
2023-04-22T16:24:51.246Z,8.57
2023-04-22T16:27:19.117Z,7.60
2023-04-22T16:29:45.964Z,18.92
2023-04-22T16:32:12.716Z,12.32
2023-04-22T16:34:39.324Z,9.20
2023-04-22T16:37:06.474Z,11.25
2023-04-22T16:39:33.404Z,14.18
2023-04-22T16:42:02.294Z,10.00
2023-04-22T16:44:29.053Z,10.18
2023-04-22T16:46:55.903Z,11.98
2023-04-22T16:49:22.454Z,11.98
2023-04-22T16:51:49.308Z,13.68
2023-04-22T16:54:15.954Z,11.30
2023-04-22T16:56:42.564Z,9.27
2023-04-22T16:59:09.076Z,12.20
2023-04-22T17:01:36.190Z,17.85
2023-04-22T17:04:03.108Z,25.23
2023-04-22T17:06:29.815Z,28.55
2023-04-22T17:08:56.420Z,21.83
2023-04-22T17:11:23.966Z,18.08
2023-04-22T17:13:51.443Z,16.35
2023-04-22T17:16:18.640Z,16.85
2023-04-22T17:18:46.912Z,21.33
2023-04-22T17:21:14.063Z,19.98
2023-04-22T17:23:40.699Z,21.38
2023-04-22T17:26:07.282Z,18.45
2023-04-22T17:28:34.098Z,14.32
2023-04-22T17:31:00.894Z,16.02
2023-04-22T17:33:27.537Z,17.05
2023-04-22T17:35:54.132Z,16.25
2023-04-22T17:38:20.818Z,16.13
2023-04-22T17:40:47.986Z,22.67
2023-04-22T17:43:17.362Z,31.45
2023-04-22T17:45:44.184Z,34.30
2023-04-22T17:48:12.122Z,21.40
2023-04-22T17:50:38.883Z,20.95
2023-04-22T17:53:05.987Z,20.10
2023-04-22T17:55:35.213Z,17.40
2023-04-22T17:58:03.177Z,20.70
2023-04-22T18:00:30.986Z,21.35
2023-04-22T18:02:57.933Z,350.08
2023-04-22T18:05:25.218Z,226.82
2023-04-22T18:07:52.534Z,722.67
2023-04-22T18:10:19.545Z,607.67
2023-04-22T18:12:46.114Z,839.38
2023-04-22T18:15:12.773Z,391.85
2023-04-22T18:17:39.505Z,103.55
2023-04-22T18:20:17.220Z,81.65
2023-04-22T18:22:47.143Z,75.35
2023-04-22T18:25:15.798Z,136.77
2023-04-22T18:30:10.916Z,67.13
2023-04-22T18:32:37.817Z,53.30
2023-04-22T18:35:05.194Z,50.40
2023-04-22T18:37:34.361Z,61.75
2023-04-22T18:40:01.187Z,27.70
2023-04-22T18:42:28.058Z,39.55
2023-04-22T18:44:54.635Z,46.35
2023-04-22T18:47:21.401Z,88.45
2023-04-22T18:49:48.209Z,66.05
2023-04-22T18:52:17.962Z,750.75
2023-04-22T18:54:44.711Z,542.83
2023-04-22T18:57:11.354Z,401.13
2023-04-22T18:59:38.535Z,456.80
2023-04-22T19:02:05.697Z,596.30
2023-04-22T19:04:32.403Z,330.00
2023-04-22T19:06:59.239Z,307.52
2023-04-22T19:09:26.011Z,466.48
2023-04-22T19:11:52.944Z,283.10
2023-04-22T19:14:19.914Z,387.67
2023-04-22T19:16:46.535Z,261.95
2023-04-22T19:19:13.233Z,138.35
2023-04-22T19:21:40.030Z,339.33
2023-04-22T19:24:08.296Z,130.90
2023-04-22T19:26:37.698Z,196.73
2023-04-22T19:29:04.278Z,209.57
2023-04-22T19:31:31.085Z,146.88
2023-04-22T19:33:58.045Z,51.63
2023-04-22T19:36:24.712Z,38.30
2023-04-22T19:38:51.367Z,396.95
2023-04-22T19:41:17.931Z,917.45
2023-04-22T19:43:45.210Z,855.40
2023-04-22T19:46:12.545Z,705.50
2023-04-22T19:48:39.433Z,1291.63
2023-04-22T19:51:06.739Z,1320.97
2023-04-22T19:53:35.095Z,1212.25
2023-04-22T19:56:02.446Z,492.50
2023-04-22T19:58:29.348Z,600.97
2023-04-22T20:00:56.094Z,193.60
2023-04-22T20:03:23.455Z,50.22
2023-04-22T20:05:50.422Z,47.30
2023-04-22T20:10:36.462Z,48.33
2023-04-22T20:13:04.643Z,54.10
2023-04-22T20:15:31.399Z,44.47
2023-04-22T20:17:58.224Z,53.15
2023-04-22T20:20:25.119Z,47.47
2023-04-22T20:22:53.611Z,47.10
2023-04-22T20:25:21.022Z,40.72
2023-04-22T20:27:48.585Z,43.15
2023-04-22T20:30:18.911Z,41.75
2023-04-22T20:32:45.720Z,42.50
2023-04-22T20:35:14.846Z,39.35
2023-04-22T20:37:41.854Z,39.08
2023-04-22T20:40:08.907Z,40.30
2023-04-22T20:42:36.929Z,38.15
2023-04-22T20:45:15.949Z,43.22
2023-04-22T20:47:43.203Z,43.22
2023-04-22T20:50:10.482Z,43.05
2023-04-22T20:52:37.155Z,37.10
2023-04-22T20:55:06.496Z,48.90
2023-04-22T20:57:33.286Z,32.88
2023-04-22T20:59:59.833Z,35.75
2023-04-22T21:02:26.948Z,31.65
2023-04-22T21:04:56.205Z,31.90
2023-04-22T21:07:24.453Z,27.77
2023-04-22T21:09:51.196Z,31.02
2023-04-22T21:12:19.300Z,31.90
2023-04-22T21:14:46.452Z,33.65
2023-04-22T21:17:19.829Z,31.50
2023-04-22T21:19:48.624Z,32.05
2023-04-22T21:22:19.252Z,31.63
2023-04-22T21:24:48.331Z,27.70
2023-04-22T21:27:18.694Z,28.85
2023-04-22T21:29:46.720Z,34.63
2023-04-22T21:32:13.389Z,27.92
2023-04-22T21:34:40.461Z,26.08
2023-04-22T21:37:08.153Z,24.60
2023-04-22T21:39:35.360Z,26.67
2023-04-22T21:42:07.950Z,22.88
2023-04-22T21:44:37.338Z,27.98
2023-04-22T21:47:04.793Z,25.88
2023-04-22T21:49:31.758Z,23.77
2023-04-22T21:51:59.055Z,27.55
2023-04-22T21:54:25.840Z,25.13
2023-04-22T21:56:52.429Z,18.42
2023-04-22T21:59:19.257Z,27.02
2023-04-22T22:01:46.942Z,25.23
2023-04-22T22:04:16.213Z,25.33
2023-04-22T22:06:44.108Z,20.38
2023-04-22T22:09:11.634Z,20.08
2023-04-22T22:11:38.183Z,18.52
2023-04-22T22:14:05.092Z,22.35
2023-04-22T22:16:31.773Z,19.00
2023-04-22T22:18:58.523Z,21.02
2023-04-22T22:21:26.155Z,20.95
2023-04-22T22:23:52.909Z,19.65
2023-04-22T22:26:19.586Z,20.45
2023-04-22T22:28:46.392Z,20.05
2023-04-22T22:31:13.057Z,18.80
2023-04-22T22:33:39.782Z,28.73
2023-04-22T22:36:06.735Z,17.75
2023-04-22T22:38:33.555Z,20.35
2023-04-22T22:41:00.132Z,21.05
2023-04-22T22:43:26.967Z,18.25
2023-04-22T22:45:53.608Z,22.23
2023-04-22T22:48:20.480Z,20.55
2023-04-22T22:50:47.183Z,24.80
2023-04-22T22:53:13.846Z,25.70
2023-04-22T22:55:40.495Z,26.92
2023-04-22T22:58:07.061Z,21.52
2023-04-22T23:00:33.821Z,21.73
2023-04-22T23:03:00.723Z,23.42
2023-04-22T23:05:27.621Z,25.65
2023-04-22T23:07:54.230Z,22.80
2023-04-22T23:10:21.113Z,19.08
2023-04-22T23:12:47.836Z,20.60
2023-04-22T23:15:14.354Z,21.30
2023-04-22T23:17:41.033Z,21.55
2023-04-22T23:20:10.644Z,22.10
2023-04-22T23:22:41.553Z,32.28
2023-04-22T23:25:09.123Z,29.02
2023-04-22T23:27:36.107Z,50.58
2023-04-22T23:30:04.558Z,37.30
2023-04-22T23:32:32.337Z,50.92
2023-04-22T23:35:00.705Z,37.72
2023-04-22T23:37:28.848Z,33.25
2023-04-22T23:39:55.594Z,32.13
2023-04-22T23:42:22.214Z,28.42
2023-04-22T23:44:48.804Z,36.38
2023-04-22T23:47:15.433Z,20.63
2023-04-22T23:49:42.214Z,21.90
2023-04-22T23:52:09.115Z,24.65
2023-04-22T23:54:36.058Z,23.27
2023-04-22T23:57:02.910Z,30.77
2023-04-22T23:59:29.881Z,23.92
